Time;durP1;ratioP1;P1;durP2;ratioP2;P2;SDS_P1;SDS_P2;PMS_P1;PMS_P2;Temp;Humidity;BMP_temperature;BMP_pressure;BME280_temperature;BME280_humidity;BME280_pressure;Samples;Min_cycle;Max_cycle;Signal;HPM_P1;HPM_P2
2022/08/15 00:02:04;;;;;;;9.83;7.77;;;21.50;99.90;;;;;;5025489;28;20231;-80
2022/08/15 00:04:31;;;;;;;7.77;7.00;;;21.50;99.90;;;;;;5024110;28;20226;-80
2022/08/15 00:06:58;;;;;;;6.87;6.27;;;21.50;99.90;;;;;;5025015;28;20208;-81
2022/08/15 00:09:26;;;;;;;8.20;7.00;;;21.50;99.90;;;;;;5031534;28;20649;-81
2022/08/15 00:11:56;;;;;;;7.47;6.70;;;21.50;99.90;;;;;;5034516;28;20235;-80
2022/08/15 00:14:26;;;;;;;9.90;8.37;;;21.50;99.90;;;;;;5027519;28;20201;-81
2022/08/15 00:16:53;;;;;;;7.20;6.50;;;21.50;99.90;;;;;;5031153;28;20211;-81
2022/08/15 00:19:23;;;;;;;7.80;7.10;;;21.40;99.90;;;;;;5029481;28;20258;-81
2022/08/15 00:21:54;;;;;;;7.43;6.67;;;21.40;99.90;;;;;;5023617;28;20216;-81
2022/08/15 00:24:25;;;;;;;8.60;6.37;;;21.40;99.90;;;;;;5026127;28;20200;-81
2022/08/15 00:26:55;;;;;;;6.97;6.27;;;21.30;99.90;;;;;;5027630;28;20223;-80
2022/08/15 00:29:25;;;;;;;7.30;6.60;;;21.30;99.90;;;;;;5025332;28;20196;-81
2022/08/15 00:31:53;;;;;;;6.80;6.07;;;21.30;99.90;;;;;;5023004;28;20196;-80
2022/08/15 00:34:21;;;;;;;6.93;6.23;;;21.30;99.90;;;;;;5023189;28;20262;-81
2022/08/15 00:36:50;;;;;;;6.80;6.20;;;21.20;99.90;;;;;;5027985;28;20216;-81
2022/08/15 00:39:18;;;;;;;7.80;7.10;;;21.20;99.90;;;;;;5023183;28;20188;-81
2022/08/15 00:41:46;;;;;;;9.10;6.90;;;21.20;99.90;;;;;;5024302;28;20193;-81
2022/08/15 00:44:19;;;;;;;8.77;6.90;;;21.20;99.90;;;;;;5026977;28;20203;-81
2022/08/15 00:46:56;;;;;;;7.93;6.83;;;21.10;99.90;;;;;;5027989;28;20233;-81
2022/08/15 00:49:26;;;;;;;7.07;6.37;;;21.20;99.90;;;;;;5024906;28;20204;-81
2022/08/15 00:51:55;;;;;;;8.67;7.43;;;21.10;99.90;;;;;;5024533;28;20196;-81
2022/08/15 00:54:26;;;;;;;6.70;6.10;;;21.10;99.90;;;;;;5028096;28;20200;-80
2022/08/15 00:56:56;;;;;;;7.87;6.53;;;21.00;99.90;;;;;;5022566;28;20261;-80
2022/08/15 00:59:27;;;;;;;7.73;6.57;;;20.90;99.90;;;;;;5022794;28;20246;-80
2022/08/15 01:01:57;;;;;;;7.40;6.70;;;20.90;99.90;;;;;;5022643;28;20286;-80
2022/08/15 01:04:24;;;;;;;7.47;6.77;;;20.90;99.90;;;;;;5024845;28;20192;-80
2022/08/15 01:06:50;;;;;;;8.83;7.00;;;20.80;99.90;;;;;;5027412;28;20221;-80
2022/08/15 01:09:19;;;;;;;8.47;6.13;;;20.80;99.90;;;;;;5023170;28;20203;-80
2022/08/15 01:11:51;;;;;;;7.77;7.00;;;20.70;99.90;;;;;;5027279;28;20289;-80
2022/08/15 01:14:22;;;;;;;7.97;6.60;;;20.70;99.90;;;;;;5023767;28;20199;-80
2022/08/15 01:16:51;;;;;;;7.70;6.90;;;20.70;99.90;;;;;;5020553;28;20223;-80
2022/08/15 01:19:22;;;;;;;8.37;7.43;;;20.60;99.90;;;;;;5029435;28;20202;-80
2022/08/15 01:22:10;;;;;;;7.43;6.37;;;20.60;99.90;;;;;;5022653;28;20664;-80
2022/08/15 01:24:50;;;;;;;7.20;6.50;;;20.70;99.90;;;;;;5026048;28;20225;-80
2022/08/15 01:27:19;;;;;;;7.90;7.13;;;20.60;99.90;;;;;;5023295;28;20615;-80
2022/08/15 01:29:47;;;;;;;8.57;6.77;;;20.60;99.90;;;;;;5028737;28;20224;-80
2022/08/15 01:32:14;;;;;;;8.10;7.30;;;20.70;99.90;;;;;;5022440;28;20290;-80
2022/08/15 01:34:41;;;;;;;7.30;6.70;;;20.60;99.90;;;;;;5023876;28;20192;-80
2022/08/15 01:37:08;;;;;;;8.47;6.97;;;20.70;99.90;;;;;;5027159;28;20605;-80
2022/08/15 01:39:41;;;;;;;8.00;7.20;;;20.60;99.90;;;;;;5019058;28;20620;-81
2022/08/15 01:42:13;;;;;;;7.97;6.80;;;20.60;99.90;;;;;;5043728;28;20273;-80
2022/08/15 01:44:44;;;;;;;7.07;6.43;;;20.70;99.90;;;;;;5027858;28;20225;-80
2022/08/15 01:47:19;;;;;;;6.70;6.07;;;20.60;99.90;;;;;;5026424;28;20255;-80
2022/08/15 01:49:54;;;;;;;7.13;6.43;;;20.60;99.90;;;;;;5027454;28;20202;-80
2022/08/15 01:52:25;;;;;;;7.90;7.10;;;20.60;99.90;;;;;;5026103;28;20209;-80
2022/08/15 01:54:55;;;;;;;9.07;7.70;;;20.60;99.90;;;;;;5025773;28;20320;-80
2022/08/15 01:57:24;;;;;;;8.17;7.37;;;20.60;99.90;;;;;;5029928;28;20226;-80
2022/08/15 01:59:57;;;;;;;6.93;6.33;;;20.60;99.90;;;;;;5026132;28;20192;-80
2022/08/15 02:02:26;;;;;;;7.67;6.97;;;20.60;99.90;;;;;;5028617;28;20677;-80
2022/08/15 02:04:54;;;;;;;8.43;7.50;;;20.60;99.90;;;;;;5030142;28;20206;-80
2022/08/15 02:07:25;;;;;;;6.77;6.17;;;20.60;99.90;;;;;;5027551;28;20229;-80
2022/08/15 02:09:55;;;;;;;7.03;6.33;;;20.60;99.90;;;;;;5025716;28;20230;-80
2022/08/15 02:12:29;;;;;;;8.20;7.50;;;20.60;99.90;;;;;;5025760;28;20196;-80
2022/08/15 02:14:56;;;;;;;8.00;7.10;;;20.60;99.90;;;;;;5025457;28;20192;-80
2022/08/15 02:17:23;;;;;;;7.00;6.30;;;20.60;99.90;;;;;;5024813;28;20207;-80
2022/08/15 02:19:52;;;;;;;6.53;5.80;;;20.60;99.90;;;;;;5025719;28;20290;-80
2022/08/15 02:22:24;;;;;;;7.60;6.83;;;20.60;99.90;;;;;;5029002;28;20204;-80
2022/08/15 02:24:51;;;;;;;7.57;6.97;;;20.60;99.90;;;;;;5030071;28;20605;-80
2022/08/15 02:27:18;;;;;;;7.13;6.47;;;20.60;99.90;;;;;;5026715;28;20227;-80
2022/08/15 02:29:47;;;;;;;8.13;5.83;;;20.60;99.90;;;;;;5025301;28;20204;-80
2022/08/15 02:32:16;;;;;;;7.30;4.90;;;20.60;99.90;;;;;;5029401;28;20290;-80
2022/08/15 02:34:45;;;;;;;6.27;5.20;;;20.60;99.90;;;;;;5026446;28;20199;-80
2022/08/15 02:37:18;;;;;;;6.60;4.70;;;20.60;99.90;;;;;;5026024;28;20212;-80
2022/08/15 02:39:47;;;;;;;5.13;4.30;;;20.60;99.90;;;;;;5025370;28;20282;-80
2022/08/15 02:42:15;;;;;;;5.50;4.03;;;20.60;99.90;;;;;;5029127;28;20231;-79
2022/08/15 02:44:43;;;;;;;5.67;4.27;;;20.50;99.90;;;;;;5029827;28;20205;-80
2022/08/15 02:47:14;;;;;;;4.20;3.73;;;20.50;99.90;;;;;;5032809;28;20577;-81
2022/08/15 02:49:42;;;;;;;5.93;4.33;;;20.50;99.90;;;;;;5029561;28;20706;-80
2022/08/15 02:52:09;;;;;;;5.10;4.20;;;20.50;99.90;;;;;;5025920;28;20192;-80
2022/08/15 02:54:36;;;;;;;5.93;4.03;;;20.50;99.90;;;;;;5029675;28;20217;-80
2022/08/15 02:57:06;;;;;;;6.77;4.90;;;20.50;99.90;;;;;;5045269;28;20764;-79
2022/08/15 02:59:33;;;;;;;5.00;4.30;;;20.60;99.90;;;;;;5036251;28;20700;-80
2022/08/15 03:02:00;;;;;;;5.87;4.00;;;20.60;99.90;;;;;;5039428;28;20226;-79
2022/08/15 03:04:30;;;;;;;5.23;4.40;;;20.50;99.90;;;;;;5035564;28;20682;-79
2022/08/15 03:07:01;;;;;;;6.33;5.77;;;20.40;99.90;;;;;;5034114;28;20738;-79
2022/08/15 03:09:30;;;;;;;5.73;4.10;;;20.40;99.90;;;;;;5025666;28;20863;-80
2022/08/15 03:12:03;;;;;;;5.93;5.23;;;20.30;99.90;;;;;;5034465;28;20191;-79
2022/08/15 03:14:36;;;;;;;6.37;5.87;;;20.10;99.90;;;;;;5025505;28;20191;-81
2022/08/15 03:17:08;;;;;;;6.27;5.67;;;20.10;99.90;;;;;;5024665;28;20219;-81
2022/08/15 03:19:41;;;;;;;5.30;4.80;;;20.00;99.90;;;;;;5024610;28;20254;-80
2022/08/15 03:22:12;;;;;;;6.40;5.77;;;19.90;99.90;;;;;;5030411;28;20199;-80
2022/08/15 03:24:42;;;;;;;4.40;3.50;;;19.80;99.90;;;;;;5030212;28;20198;-79
2022/08/15 03:27:09;;;;;;;6.30;5.80;;;19.70;99.90;;;;;;5027691;28;20223;-80
2022/08/15 03:29:36;;;;;;;7.50;6.90;;;19.70;99.90;;;;;;5027089;28;20224;-80
2022/08/15 03:32:11;;;;;;;5.67;5.17;;;19.70;99.90;;;;;;5026327;28;20735;-81
2022/08/15 03:34:38;;;;;;;7.50;6.90;;;19.70;99.90;;;;;;5026708;28;20837;-80
2022/08/15 03:37:06;;;;;;;7.73;7.03;;;19.60;99.90;;;;;;5025595;28;20218;-80
2022/08/15 03:39:33;;;;;;;6.80;6.20;;;19.60;99.90;;;;;;5023343;28;20188;-80
2022/08/15 03:42:08;;;;;;;9.20;6.50;;;19.60;99.90;;;;;;5030298;28;20198;-80
2022/08/15 03:44:36;;;;;;;6.50;6.07;;;19.50;99.90;;;;;;5029466;28;20242;-80
2022/08/15 03:47:05;;;;;;;6.90;6.40;;;19.50;99.90;;;;;;5026142;28;20716;-80
2022/08/15 03:49:34;;;;;;;7.83;7.20;;;19.50;99.90;;;;;;5029471;28;20632;-80
2022/08/15 03:52:07;;;;;;;7.30;6.70;;;19.50;99.90;;;;;;5025441;28;20268;-80
2022/08/15 03:54:34;;;;;;;7.50;6.90;;;19.50;99.90;;;;;;5025781;28;20199;-80
2022/08/15 03:57:01;;;;;;;7.40;6.90;;;19.50;99.90;;;;;;5025627;28;20215;-80
2022/08/15 03:59:28;;;;;;;7.00;6.50;;;19.50;99.90;;;;;;5027739;28;20215;-80
2022/08/15 04:01:56;;;;;;;6.60;6.10;;;19.40;99.90;;;;;;5030037;28;20209;-80
2022/08/15 04:04:24;;;;;;;6.90;6.40;;;19.40;99.90;;;;;;5025044;28;20265;-80
2022/08/15 04:06:52;;;;;;;7.10;6.50;;;19.40;99.90;;;;;;5029308;28;20222;-80
2022/08/15 04:09:20;;;;;;;6.80;6.20;;;19.40;99.90;;;;;;5026392;28;20646;-80
2022/08/15 04:11:49;;;;;;;6.83;6.23;;;19.40;99.90;;;;;;5025212;28;20199;-80
2022/08/15 04:14:22;;;;;;;6.37;5.93;;;19.40;99.90;;;;;;5025251;28;20691;-80
2022/08/15 04:16:49;;;;;;;6.50;6.00;;;19.30;99.90;;;;;;5036176;28;20694;-80
2022/08/15 04:19:16;;;;;;;6.73;6.13;;;19.30;99.90;;;;;;5032423;28;20245;-80
2022/08/15 04:21:45;;;;;;;6.40;5.90;;;19.30;99.90;;;;;;5027420;28;20202;-79
2022/08/15 04:24:12;;;;;;;6.53;6.03;;;19.40;99.90;;;;;;5029539;28;20210;-80
2022/08/15 04:26:40;;;;;;;6.60;6.00;;;19.40;99.90;;;;;;5033234;28;20227;-80
2022/08/15 04:29:07;;;;;;;6.00;5.53;;;19.40;99.90;;;;;;5031655;28;20221;-80
2022/08/15 04:31:35;;;;;;;6.23;5.77;;;19.40;99.90;;;;;;5025148;28;20226;-79
2022/08/15 04:34:03;;;;;;;6.00;5.60;;;19.40;99.90;;;;;;5028486;28;20766;-80
2022/08/15 04:36:31;;;;;;;6.00;5.60;;;19.40;99.90;;;;;;5025568;28;20240;-79
2022/08/15 04:39:01;;;;;;;6.20;5.80;;;19.40;99.90;;;;;;5025074;28;20198;-80
2022/08/15 04:41:32;;;;;;;5.53;5.20;;;19.40;99.90;;;;;;5027063;28;20634;-80
2022/08/15 04:44:02;;;;;;;6.00;5.50;;;19.40;99.90;;;;;;5029254;28;20970;-80
2022/08/15 04:46:29;;;;;;;6.00;5.60;;;19.50;99.90;;;;;;5027173;28;20226;-80
2022/08/15 04:48:57;;;;;;;6.40;5.90;;;19.40;99.90;;;;;;5026910;28;20203;-80
2022/08/15 04:51:24;;;;;;;6.03;5.60;;;19.50;99.90;;;;;;5026339;28;20198;-80
2022/08/15 04:53:51;;;;;;;6.57;5.93;;;19.40;99.90;;;;;;5026529;28;20663;-80
2022/08/15 04:56:18;;;;;;;5.77;5.37;;;19.40;99.90;;;;;;5024938;28;20741;-80
2022/08/15 04:58:46;;;;;;;6.43;6.03;;;19.50;99.90;;;;;;5024362;28;20194;-80
2022/08/15 05:01:19;;;;;;;6.50;6.10;;;19.50;99.90;;;;;;5021363;28;20194;-80
2022/08/15 05:03:54;;;;;;;6.60;6.10;;;19.50;99.90;;;;;;5029298;28;20260;-80
2022/08/15 05:06:21;;;;;;;6.37;5.83;;;19.50;99.90;;;;;;5024643;28;20223;-80
2022/08/15 05:08:48;;;;;;;5.27;4.93;;;19.50;99.90;;;;;;5029989;28;20208;-79
2022/08/15 05:11:20;;;;;;;3.47;3.00;;;19.40;99.90;;;;;;5026106;28;20210;-79
2022/08/15 05:13:54;;;;;;;6.83;6.33;;;19.50;99.90;;;;;;5024264;28;20195;-80
2022/08/15 05:16:29;;;;;;;3.43;3.07;;;19.50;99.90;;;;;;5026351;28;20213;-80
2022/08/15 05:18:56;;;;;;;4.13;3.77;;;19.50;99.90;;;;;;5023708;28;20285;-80
2022/08/15 05:21:23;;;;;;;3.80;3.50;;;19.50;99.90;;;;;;5032621;28;20275;-80
2022/08/15 05:23:51;;;;;;;4.30;3.50;;;19.50;99.90;;;;;;5024576;28;20208;-80
2022/08/15 05:26:22;;;;;;;3.53;3.23;;;19.50;99.90;;;;;;5031682;28;20638;-80
2022/08/15 05:28:49;;;;;;;3.67;3.37;;;19.60;99.90;;;;;;5025104;28;20205;-79
2022/08/15 05:31:17;;;;;;;4.03;3.40;;;19.50;99.90;;;;;;5029192;28;20197;-80
2022/08/15 05:33:48;;;;;;;3.63;3.33;;;19.60;99.90;;;;;;5030064;28;20223;-80
2022/08/15 05:36:18;;;;;;;3.90;3.50;;;19.60;99.90;;;;;;5027885;28;20209;-80
2022/08/15 05:38:50;;;;;;;3.63;3.00;;;19.80;99.90;;;;;;5025514;28;20219;-80
2022/08/15 05:41:30;;;;;;;3.33;2.77;;;19.80;99.90;;;;;;5029069;28;20198;-80
2022/08/15 05:44:02;;;;;;;3.10;2.90;;;19.80;99.90;;;;;;5024959;28;20209;-80
2022/08/15 05:46:46;;;;;;;3.20;2.50;;;19.80;99.90;;;;;;5026368;28;20226;-80
2022/08/15 05:49:29;;;;;;;2.60;2.40;;;19.90;99.90;;;;;;5026652;28;20192;-79
2022/08/15 05:52:13;;;;;;;2.97;2.67;;;20.00;99.90;;;;;;5032514;28;20206;-80
2022/08/15 05:54:53;;;;;;;4.50;2.70;;;20.00;99.90;;;;;;5026162;28;20227;-80
2022/08/15 05:57:25;;;;;;;2.67;2.47;;;20.10;99.90;;;;;;5024361;28;20215;-80
2022/08/15 05:59:57;;;;;;;3.60;3.30;;;20.20;99.90;;;;;;5025421;28;20676;-79
2022/08/15 06:02:32;;;;;;;3.37;3.10;;;20.20;99.90;;;;;;5028235;28;20767;-80
2022/08/15 06:05:08;;;;;;;3.83;3.10;;;20.20;99.90;;;;;;5029497;28;20207;-80
2022/08/15 06:07:35;;;;;;;2.93;2.73;;;20.30;99.90;;;;;;5029862;28;20242;-80
2022/08/15 06:10:09;;;;;;;3.23;3.03;;;20.40;99.90;;;;;;5025232;28;20206;-80
2022/08/15 06:12:42;;;;;;;5.67;5.20;;;20.40;99.90;;;;;;5024675;28;20203;-80
2022/08/15 06:15:17;;;;;;;3.37;3.07;;;20.40;99.90;;;;;;5029993;28;20234;-79
2022/08/15 06:17:56;;;;;;;3.47;3.10;;;20.50;99.90;;;;;;5024657;28;20208;-80
2022/08/15 06:20:34;;;;;;;5.17;4.87;;;20.60;99.90;;;;;;5027829;28;20208;-80
2022/08/15 06:23:08;;;;;;;3.63;2.87;;;20.70;99.90;;;;;;5031289;28;20657;-80
2022/08/15 06:25:45;;;;;;;2.33;2.13;;;20.80;99.90;;;;;;5029018;28;20206;-80
2022/08/15 06:28:34;;;;;;;2.80;2.60;;;20.80;99.90;;;;;;5025544;28;20247;-79
2022/08/15 06:31:06;;;;;;;2.50;2.30;;;20.90;99.90;;;;;;5028591;28;20287;-80
2022/08/15 06:33:40;;;;;;;4.17;3.77;;;21.10;99.90;;;;;;5031421;28;20267;-80
2022/08/15 06:36:17;;;;;;;2.90;2.50;;;21.30;99.90;;;;;;5028284;28;20202;-80
2022/08/15 06:38:52;;;;;;;4.10;3.50;;;21.50;99.90;;;;;;5028092;28;20191;-80
2022/08/15 06:41:27;;;;;;;6.60;5.17;;;21.70;99.90;;;;;;5028323;28;20227;-80
2022/08/15 06:44:04;;;;;;;3.23;2.40;;;21.80;99.90;;;;;;5031115;28;20667;-80
2022/08/15 06:46:39;;;;;;;4.93;4.07;;;21.90;99.90;;;;;;5029308;28;20273;-81
2022/08/15 06:49:09;;;;;;;5.03;4.73;;;22.10;99.90;;;;;;5027649;28;20198;-80
2022/08/15 06:51:47;;;;;;;5.23;4.60;;;22.20;99.90;;;;;;5027976;28;20593;-80
2022/08/15 06:54:18;;;;;;;5.47;5.17;;;22.40;99.90;;;;;;5036016;28;20202;-80
2022/08/15 06:57:00;;;;;;;5.80;5.40;;;22.50;99.90;;;;;;5035872;28;20208;-81
2022/08/15 06:59:36;;;;;;;6.10;5.70;;;22.70;99.90;;;;;;5033100;28;20251;-80
2022/08/15 07:02:16;;;;;;;3.47;3.17;;;22.90;99.90;;;;;;5036395;28;20229;-80
2022/08/15 07:05:00;;;;;;;6.03;5.63;;;23.00;99.90;;;;;;5035574;28;20199;-80
2022/08/15 07:07:40;;;;;;;3.20;2.60;;;23.10;99.90;;;;;;5033296;28;20220;-80
2022/08/15 07:10:15;;;;;;;2.97;2.70;;;23.20;99.90;;;;;;5036123;28;20196;-80
2022/08/15 07:12:50;;;;;;;5.20;4.70;;;23.20;99.90;;;;;;5036523;28;20198;-81
2022/08/15 07:15:28;;;;;;;5.73;5.33;;;23.30;99.90;;;;;;5024674;28;20206;-80
2022/08/15 07:18:00;;;;;;;5.90;5.50;;;23.40;99.90;;;;;;5016614;28;20216;-81
2022/08/15 07:20:31;;;;;;;4.20;3.90;;;23.50;99.90;;;;;;5018955;28;20559;-81
2022/08/15 07:23:00;;;;;;;4.97;4.67;;;23.60;99.90;;;;;;5028691;28;20199;-80
2022/08/15 07:25:34;;;;;;;6.20;5.70;;;23.80;99.90;;;;;;5029740;28;20231;-80
2022/08/15 07:28:05;;;;;;;5.80;5.20;;;24.00;99.90;;;;;;5033586;28;20226;-80
2022/08/15 07:30:45;;;;;;;3.63;2.80;;;24.30;99.90;;;;;;5032755;28;20202;-80
2022/08/15 07:33:36;;;;;;;2.30;2.10;;;24.70;99.90;;;;;;5029738;28;20222;-80
2022/08/15 07:36:08;;;;;;;3.03;2.57;;;25.20;99.90;;;;;;5027990;28;20204;-81
2022/08/15 07:38:38;;;;;;;6.00;5.50;;;25.70;99.90;;;;;;5030126;28;20731;-81
2022/08/15 07:41:23;;;;;;;2.67;2.30;;;26.20;99.90;;;;;;5026031;28;20203;-81
2022/08/15 07:43:52;;;;;;;2.83;2.63;;;26.50;99.90;;;;;;5025856;28;20214;-80
2022/08/15 07:46:25;;;;;;;4.13;3.83;;;26.80;99.90;;;;;;5026299;28;20224;-81
2022/08/15 07:49:02;;;;;;;5.83;5.10;;;27.00;99.90;;;;;;5030609;28;20291;-81
2022/08/15 07:51:38;;;;;;;4.40;4.00;;;27.20;99.90;;;;;;5026858;28;20220;-80
2022/08/15 07:54:27;;;;;;;5.23;4.83;;;27.50;99.90;;;;;;5031506;28;20661;-81
2022/08/15 07:56:58;;;;;;;4.47;4.10;;;27.90;99.90;;;;;;5026728;28;20212;-81
2022/08/15 07:59:30;;;;;;;2.63;2.53;;;28.10;99.90;;;;;;5023507;28;20283;-81
2022/08/15 08:02:23;;;;;;;2.97;2.70;;;28.20;99.50;;;;;;5029541;28;20259;-81
2022/08/15 08:04:50;;;;;;;4.13;3.87;;;28.40;99.60;;;;;;5030202;28;20730;-81
2022/08/15 08:07:21;;;;;;;3.83;3.33;;;28.50;98.80;;;;;;5026815;28;20212;-81
2022/08/15 08:09:55;;;;;;;5.63;5.23;;;28.30;98.00;;;;;;5032753;28;20196;-81
2022/08/15 08:12:31;;;;;;;5.80;5.30;;;28.40;98.20;;;;;;5030275;28;20210;-79
2022/08/15 08:15:10;;;;;;;5.47;5.07;;;28.40;98.30;;;;;;5032239;28;20191;-79
2022/08/15 08:17:43;;;;;;;5.77;5.37;;;28.50;97.00;;;;;;5028639;28;20218;-81
2022/08/15 08:20:23;;;;;;;6.07;5.60;;;28.50;97.70;;;;;;5031825;28;20222;-79
2022/08/15 08:22:55;;;;;;;6.20;5.70;;;28.40;97.70;;;;;;5024477;28;20199;-79
2022/08/15 08:25:30;;;;;;;6.37;5.77;;;28.40;97.70;;;;;;5024551;28;20192;-79
2022/08/15 08:28:09;;;;;;;4.70;4.40;;;28.60;97.20;;;;;;5023938;28;20707;-78
2022/08/15 08:30:41;;;;;;;4.60;4.30;;;28.90;97.00;;;;;;5027881;28;20200;-79
2022/08/15 08:33:17;;;;;;;5.87;5.50;;;29.20;96.20;;;;;;5024012;28;20192;-79
2022/08/15 08:35:52;;;;;;;5.97;5.57;;;29.30;95.30;;;;;;5028832;28;20195;-79
2022/08/15 08:38:34;;;;;;;6.10;5.67;;;29.30;95.70;;;;;;5025810;28;20220;-79
2022/08/15 08:41:29;;;;;;;5.93;5.57;;;29.30;95.00;;;;;;5029591;28;20656;-78
2022/08/15 08:44:06;;;;;;;5.90;5.50;;;29.50;94.40;;;;;;5028855;28;20206;-79
2022/08/15 08:46:52;;;;;;;6.10;5.70;;;29.50;94.30;;;;;;5027852;28;20590;-79
2022/08/15 08:49:26;;;;;;;5.80;5.40;;;29.50;94.50;;;;;;5024382;28;20204;-79
2022/08/15 08:52:00;;;;;;;5.93;5.60;;;29.40;94.60;;;;;;5031022;28;20246;-79
2022/08/15 08:54:40;;;;;;;6.00;5.50;;;29.90;94.60;;;;;;5026722;28;20192;-79
2022/08/15 08:57:12;;;;;;;5.43;5.03;;;30.00;93.80;;;;;;5024795;28;20597;-79
2022/08/15 08:59:46;;;;;;;6.40;6.00;;;30.10;93.40;;;;;;5023901;28;20254;-79
2022/08/15 09:02:20;;;;;;;5.63;5.23;;;30.20;92.70;;;;;;5024550;28;20241;-79
2022/08/15 09:04:51;;;;;;;5.70;5.40;;;30.20;92.90;;;;;;5028192;28;20278;-79
2022/08/15 09:07:23;;;;;;;6.27;5.77;;;30.20;93.10;;;;;;5023281;28;20216;-79
2022/08/15 09:09:52;;;;;;;6.40;5.80;;;30.20;93.10;;;;;;5022965;28;20212;-79
2022/08/15 09:15:15;;;;;;;6.33;5.90;;;30.30;91.70;;;;;;5026613;28;20215;-79
2022/08/15 09:17:45;;;;;;;6.07;5.57;;;30.40;91.80;;;;;;5027695;28;20730;-79
2022/08/15 09:20:16;;;;;;;6.33;5.83;;;30.20;91.50;;;;;;5025231;28;20204;-79
2022/08/15 09:22:43;;;;;;;4.40;4.10;;;30.00;91.40;;;;;;5028770;28;20250;-79
2022/08/15 09:25:11;;;;;;;5.87;5.40;;;29.50;91.80;;;;;;5023952;28;20224;-79
2022/08/15 09:27:48;;;;;;;4.60;4.20;;;28.90;92.70;;;;;;5022890;28;20216;-79
2022/08/15 09:30:16;;;;;;;3.50;3.27;;;28.90;92.80;;;;;;5023500;28;20192;-79
2022/08/15 09:32:56;;;;;;;5.70;5.30;;;29.20;92.70;;;;;;5026576;28;20286;-79
2022/08/15 09:35:49;;;;;;;6.10;5.70;;;29.70;92.20;;;;;;5022719;28;20192;-79
2022/08/15 09:38:35;;;;;;;5.93;5.43;;;29.90;91.90;;;;;;5022438;28;20263;-79
2022/08/15 09:41:21;;;;;;;5.73;5.20;;;29.40;92.10;;;;;;5023975;28;20200;-79
2022/08/15 09:44:02;;;;;;;5.27;4.87;;;29.30;92.30;;;;;;5023846;28;20275;-78
2022/08/15 09:46:48;;;;;;;5.60;5.20;;;29.40;91.90;;;;;;5020487;28;20281;-79
2022/08/15 09:49:33;;;;;;;5.40;5.00;;;29.50;91.50;;;;;;5031203;28;20755;-79
2022/08/15 09:52:14;;;;;;;4.80;4.50;;;29.70;91.30;;;;;;5024368;28;20197;-79
2022/08/15 09:54:46;;;;;;;4.00;3.70;;;30.10;91.40;;;;;;5027924;28;20200;-79
2022/08/15 09:57:36;;;;;;;4.70;4.40;;;30.40;89.50;;;;;;5020996;28;20771;-79
2022/08/15 10:00:22;;;;;;;5.20;4.90;;;30.50;90.60;;;;;;5023846;28;20208;-79
2022/08/15 10:02:51;;;;;;;3.13;2.63;;;30.70;90.80;;;;;;5024949;28;20200;-80
2022/08/15 10:05:29;;;;;;;5.70;5.30;;;30.80;89.20;;;;;;5027355;28;20308;-79
2022/08/15 10:07:59;;;;;;;5.63;5.13;;;30.90;89.60;;;;;;5031069;28;20314;-79
2022/08/15 10:10:56;;;;;;;6.33;5.50;;;30.90;86.00;;;;;;5029466;28;20257;-78
2022/08/15 10:13:29;;;;;;;5.00;4.70;;;30.70;88.50;;;;;;5028269;28;20203;-79
2022/08/15 10:15:58;;;;;;;5.00;4.70;;;30.70;88.40;;;;;;5032730;28;20196;-79
2022/08/15 10:19:04;;;;;;;5.23;4.83;;;30.90;88.30;;;;;;5029923;28;20192;-79
2022/08/15 10:21:35;;;;;;;5.07;4.67;;;30.80;88.40;;;;;;5031168;28;20246;-79
2022/08/15 10:24:07;;;;;;;4.80;4.50;;;30.70;86.70;;;;;;5027837;28;20286;-79
2022/08/15 10:26:37;;;;;;;4.93;4.63;;;30.60;87.10;;;;;;5024349;28;20230;-79
2022/08/15 10:29:13;;;;;;;5.23;4.83;;;30.40;86.70;;;;;;5027869;28;20634;-78
2022/08/15 10:31:52;;;;;;;5.27;4.83;;;30.20;88.40;;;;;;5028564;28;20200;-79
2022/08/15 10:34:32;;;;;;;5.10;4.80;;;30.30;86.70;;;;;;5025798;28;20583;-79
2022/08/15 10:37:15;;;;;;;5.30;4.90;;;30.30;87.70;;;;;;5027710;28;20267;-79
2022/08/15 10:40:07;;;;;;;5.07;4.73;;;30.20;87.20;;;;;;5023267;28;20201;-78
2022/08/15 10:42:44;;;;;;;5.20;4.90;;;30.00;88.70;;;;;;5011935;28;20661;-79
2022/08/15 10:45:22;;;;;;;5.10;4.77;;;30.10;86.00;;;;;;5030154;28;20196;-79
2022/08/15 10:48:00;;;;;;;5.50;4.90;;;30.20;87.60;;;;;;5033610;28;20219;-78
2022/08/15 10:50:42;;;;;;;3.00;2.70;;;30.00;86.00;;;;;;5036558;28;20199;-79
2022/08/15 10:53:19;;;;;;;2.77;2.57;;;29.90;86.30;;;;;;5030239;28;20280;-77
2022/08/15 10:55:46;;;;;;;3.80;3.50;;;29.90;87.60;;;;;;5029292;28;20670;-79
2022/08/15 10:58:19;;;;;;;5.00;4.70;;;29.90;87.90;;;;;;5035974;28;20224;-79
2022/08/15 11:00:51;;;;;;;2.30;2.10;;;29.90;87.60;;;;;;5035326;28;20258;-78
2022/08/15 11:03:29;;;;;;;3.43;2.90;;;29.90;86.90;;;;;;5032267;28;20633;-78
2022/08/15 11:05:59;;;;;;;2.90;2.60;;;30.00;84.70;;;;;;5028884;28;20558;-78
2022/08/15 11:08:26;;;;;;;3.63;2.30;;;30.00;86.30;;;;;;5032462;28;20350;-80
2022/08/15 11:10:58;;;;;;;4.00;2.60;;;30.00;85.30;;;;;;5028164;28;20200;-78
2022/08/15 11:13:29;;;;;;;3.23;2.40;;;30.10;85.50;;;;;;5029056;28;20200;-79
2022/08/15 11:15:58;;;;;;;2.60;2.40;;;30.10;86.00;;;;;;5029461;28;20203;-78
2022/08/15 11:18:34;;;;;;;3.23;2.40;;;30.30;85.20;;;;;;5029641;28;20247;-79
2022/08/15 11:21:17;;;;;;;3.87;2.80;;;30.20;84.60;;;;;;5030671;28;20609;-78
2022/08/15 11:23:53;;;;;;;2.93;2.43;;;30.10;84.10;;;;;;5032671;28;20196;-78
2022/08/15 11:26:27;;;;;;;2.60;2.40;;;30.10;85.00;;;;;;5026863;28;20235;-79
2022/08/15 11:29:14;;;;;;;5.60;3.10;;;30.20;85.50;;;;;;5030494;28;20766;-78
2022/08/15 11:31:59;;;;;;;4.03;3.73;;;30.00;84.30;;;;;;5032588;28;20212;-78
2022/08/15 11:34:30;;;;;;;5.97;5.43;;;29.60;85.90;;;;;;5037358;28;20250;-79
2022/08/15 11:37:04;;;;;;;5.87;5.37;;;29.20;84.70;;;;;;5025975;28;20334;-79
2022/08/15 11:39:32;;;;;;;5.60;5.20;;;29.10;86.10;;;;;;5029973;28;20262;-78
2022/08/15 11:42:03;;;;;;;3.30;2.90;;;29.10;85.30;;;;;;5026943;28;20326;-78
2022/08/15 11:44:38;;;;;;;2.63;2.40;;;29.20;85.50;;;;;;5025983;28;20192;-78
2022/08/15 11:47:12;;;;;;;2.73;2.53;;;29.30;85.90;;;;;;5075475;22;20241;-80
2022/08/15 11:49:47;;;;;;;4.93;4.10;;;29.40;86.90;;;;;;5048341;28;20269;-79
2022/08/15 11:52:14;;;;;;;6.63;6.10;;;29.20;86.10;;;;;;5050329;28;20202;-78
2022/08/15 11:54:41;;;;;;;6.27;5.63;;;29.00;86.50;;;;;;5040772;28;20265;-79
2022/08/15 11:57:10;;;;;;;6.10;5.60;;;29.10;86.60;;;;;;5051088;28;20294;-79
2022/08/15 11:59:39;;;;;;;5.83;5.33;;;29.30;87.00;;;;;;5038930;28;20204;-78
2022/08/15 12:02:14;;;;;;;5.20;4.80;;;29.40;86.40;;;;;;5040006;28;20208;-78
2022/08/15 12:04:45;;;;;;;5.40;5.00;;;29.30;84.30;;;;;;5033114;28;20202;-78
2022/08/15 12:07:16;;;;;;;6.10;5.50;;;28.90;84.70;;;;;;5035369;28;20219;-77
2022/08/15 12:09:54;;;;;;;5.27;4.90;;;28.80;86.10;;;;;;5035496;28;20277;-77
2022/08/15 12:12:29;;;;;;;3.20;2.80;;;28.90;87.00;;;;;;5035885;28;20208;-78
2022/08/15 12:15:01;;;;;;;3.00;2.80;;;29.00;86.00;;;;;;5040565;28;20646;-78
2022/08/15 12:17:30;;;;;;;2.93;2.73;;;28.90;85.60;;;;;;5037300;28;20213;-78
2022/08/15 12:19:59;;;;;;;4.03;2.87;;;29.10;85.70;;;;;;5046798;28;20244;-77
2022/08/15 12:22:38;;;;;;;5.53;5.13;;;29.20;85.80;;;;;;5035818;28;20258;-78
2022/08/15 12:25:06;;;;;;;5.40;5.00;;;29.10;85.20;;;;;;5039185;28;20277;-78
2022/08/15 12:27:34;;;;;;;5.67;5.07;;;29.10;86.20;;;;;;5040426;28;20228;-77
2022/08/15 12:30:01;;;;;;;6.13;5.63;;;29.10;85.50;;;;;;5040701;28;20604;-79
2022/08/15 12:32:28;;;;;;;5.77;5.27;;;28.90;85.60;;;;;;5036085;28;20241;-77
2022/08/15 12:34:55;;;;;;;5.77;5.37;;;28.90;85.00;;;;;;5030872;28;20243;-78
2022/08/15 12:37:26;;;;;;;5.70;5.20;;;28.90;85.70;;;;;;5036088;28;20217;-77
2022/08/15 12:39:55;;;;;;;6.00;5.50;;;28.80;85.60;;;;;;5037481;28;20297;-77
2022/08/15 12:42:25;;;;;;;5.43;4.70;;;29.00;86.00;;;;;;5033300;28;20200;-77
2022/08/15 12:44:54;;;;;;;5.70;5.20;;;29.20;86.00;;;;;;5033322;28;20203;-78
2022/08/15 12:47:21;;;;;;;5.37;5.00;;;29.30;84.90;;;;;;5035092;28;20716;-77
2022/08/15 12:49:49;;;;;;;5.50;5.10;;;29.50;83.90;;;;;;5039199;28;20211;-77
2022/08/15 12:52:19;;;;;;;5.43;5.10;;;29.50;83.80;;;;;;5030938;28;20234;-78
2022/08/15 12:54:47;;;;;;;5.60;5.10;;;29.60;82.20;;;;;;5027496;28;20219;-77
2022/08/15 12:57:14;;;;;;;5.33;4.90;;;29.80;82.10;;;;;;5034954;28;20678;-78
2022/08/15 12:59:41;;;;;;;5.30;4.80;;;30.00;83.50;;;;;;5033037;28;20331;-78
2022/08/15 13:02:09;;;;;;;6.33;5.83;;;30.30;82.70;;;;;;5041540;28;20199;-78
2022/08/15 13:04:36;;;;;;;5.90;5.30;;;30.60;83.10;;;;;;5034571;28;20254;-77
2022/08/15 13:07:03;;;;;;;6.37;5.10;;;30.80;82.70;;;;;;5035700;28;20221;-78
2022/08/15 13:09:32;;;;;;;6.30;5.80;;;31.00;82.10;;;;;;5031479;28;20699;-78
2022/08/15 13:12:01;;;;;;;6.53;6.03;;;31.10;81.50;;;;;;5038407;28;20257;-77
2022/08/15 13:14:29;;;;;;;6.10;5.70;;;31.00;80.00;;;;;;5038460;28;20187;-79
2022/08/15 13:16:57;;;;;;;6.10;5.70;;;30.80;81.50;;;;;;5034513;28;20732;-77
2022/08/15 13:19:27;;;;;;;6.03;5.57;;;30.70;81.50;;;;;;5043627;28;20195;-77